Date,TemperatureHighF,TemperatureAvgF,TemperatureLowF,DewpointHighF,DewpointAvgF,DewpointLowF,HumidityHigh,HumidityAvg,HumidityLow,PressureMaxIn,PressureMinIn,WindSpeedMaxMPH,WindSpeedAvgMPH,GustSpeedMaxMPH,PrecipitationSumIn
2013-3-1,64,51,45,-100,-100,-100,0,0,100,0.00,40.00,0,-999,0,0.00
2013-3-2,55,46,43,-100,-100,-100,0,0,100,0.00,40.00,0,-999,0,0.00
2013-3-3,52,44,39,-100,-100,-100,0,0,100,0.00,40.00,0,-999,0,0.00
2013-3-4,53,39,29,-100,-100,-100,0,0,100,0.00,40.00,0,-999,0,0.00
2013-3-5,47,40,33,-100,-100,-100,0,0,100,0.00,40.00,0,-999,0,0.00
2013-3-6,41,40,39,-100,-100,-100,0,0,100,0.00,40.00,0,-999,0,0.00
2013-3-7,55,44,36,-100,-100,-100,0,0,100,0.00,40.00,0,-999,0,0.00
2013-3-8,56,41,32,-100,-100,-100,0,0,100,0.00,40.00,0,-999,0,0.00
2013-3-9,62,48,35,-100,-100,-100,0,0,100,0.00,40.00,0,-999,0,0.00
2013-3-10,58,50,41,-100,-100,-100,0,0,100,0.00,40.00,0,-999,0,0.00
2013-3-11,58,51,46,-100,-100,-100,0,0,100,0.00,40.00,0,-999,0,0.00
2013-3-12,64,54,44,-100,-100,-100,0,0,100,0.00,40.00,0,-999,0,0.00
2013-3-13,65,54,49,-100,-100,-100,0,0,100,0.00,40.00,0,-999,0,0.00
2013-3-14,67,55,47,-100,-100,-100,0,0,100,0.00,40.00,0,-999,0,0.00
2013-3-15,65,55,45,-100,-100,-100,0,0,100,0.00,40.00,0,-999,0,0.00
2013-3-16,58,49,41,-100,-100,-100,0,0,100,0.00,40.00,0,-999,0,0.00
2013-3-17,47,43,40,-100,-100,-100,0,0,100,0.00,40.00,0,-999,0,0.00
2013-3-18,53,45,39,-100,-100,-100,0,0,100,0.00,40.00,0,-999,0,0.00
2013-3-19,52,43,34,-100,-100,-100,0,0,100,0.00,40.00,0,-999,0,0.00
2013-3-20,54,44,40,-100,-100,-100,0,0,100,0.00,40.00,0,-999,0,0.00
2013-3-21,51,42,39,-100,-100,-100,0,0,100,0.00,40.00,0,-999,0,0.00
2013-3-22,50,42,37,-100,-100,-100,0,0,100,0.00,40.00,0,-999,0,0.00
2013-3-23,51,40,35,-100,-100,-100,0,0,100,0.00,40.00,0,-999,0,0.00
2013-3-24,53,41,29,-100,-100,-100,0,0,100,0.00,40.00,0,-999,0,0.00
2013-3-25,59,46,36,-100,-100,-100,0,0,100,0.00,40.00,0,-999,0,0.00
2013-3-26,59,51,42,-100,-100,-100,0,0,100,0.00,40.00,0,-999,0,0.00
2013-3-27,65,54,45,-100,-100,-100,0,0,100,0.00,40.00,0,-999,0,0.00
2013-3-28,65,54,48,-100,-100,-100,0,0,100,0.00,40.00,0,-999,0,0.00
2013-3-29,70,60,52,-100,-100,-100,0,0,100,0.00,40.00,0,-999,0,0.00
2013-3-30,73,55,43,-100,-100,-100,0,0,100,0.00,40.00,0,-999,0,0.00
2013-3-31,74,56,42,-100,-100,-100,0,0,100,0.00,40.00,0,-999,0,0.00